sensor_id;sensor_type;location;lat;lon;timestamp;pressure;altitude;pressure_sealevel;temperature;humidity
5814;BME280;2933;52.302;8.134;2022-08-11T00:00:00;101501.63;;;18.08;67.15
5814;BME280;2933;52.302;8.134;2022-08-11T00:05:09;101495.50;;;17.97;67.02
5814;BME280;2933;52.302;8.134;2022-08-11T00:10:15;101498.84;;;17.99;67.25
5814;BME280;2933;52.302;8.134;2022-08-11T00:15:17;101490.63;;;17.79;68.48
5814;BME280;2933;52.302;8.134;2022-08-11T00:20:20;101490.25;;;17.84;67.59
5814;BME280;2933;52.302;8.134;2022-08-11T00:25:24;101493.88;;;17.47;68.97
5814;BME280;2933;52.302;8.134;2022-08-11T00:30:37;101495.47;;;17.61;69.05
5814;BME280;2933;52.302;8.134;2022-08-11T00:35:40;101497.03;;;17.64;68.69
5814;BME280;2933;52.302;8.134;2022-08-11T00:40:44;101491.22;;;17.47;69.00
5814;BME280;2933;52.302;8.134;2022-08-11T00:46:25;101488.25;;;17.27;70.11
5814;BME280;2933;52.302;8.134;2022-08-11T00:51:42;101497.06;;;17.15;70.34
5814;BME280;2933;52.302;8.134;2022-08-11T01:02:44;101499.59;;;17.17;69.43
5814;BME280;2933;52.302;8.134;2022-08-11T01:14:00;101505.91;;;16.90;70.79
5814;BME280;2933;52.302;8.134;2022-08-11T01:19:32;101486.97;;;16.59;71.83
5814;BME280;2933;52.302;8.134;2022-08-11T01:30:25;101497.84;;;16.54;72.51
5814;BME280;2933;52.302;8.134;2022-08-11T01:47:09;101504.47;;;16.47;72.12
5814;BME280;2933;52.302;8.134;2022-08-11T01:52:46;101499.25;;;16.21;72.42
5814;BME280;2933;52.302;8.134;2022-08-11T01:58:03;101501.03;;;16.34;72.20
5814;BME280;2933;52.302;8.134;2022-08-11T02:03:13;101513.03;;;16.25;72.94
5814;BME280;2933;52.302;8.134;2022-08-11T02:08:28;101505.75;;;16.15;72.99
5814;BME280;2933;52.302;8.134;2022-08-11T02:13:41;101498.28;;;16.09;73.33
5814;BME280;2933;52.302;8.134;2022-08-11T02:18:51;101503.56;;;15.96;73.70
5814;BME280;2933;52.302;8.134;2022-08-11T02:24:16;101508.38;;;15.90;74.12
5814;BME280;2933;52.302;8.134;2022-08-11T02:29:27;101507.13;;;15.95;73.66
5814;BME280;2933;52.302;8.134;2022-08-11T02:34:41;101506.16;;;15.83;73.64
5814;BME280;2933;52.302;8.134;2022-08-11T02:39:51;101500.56;;;15.88;74.20
5814;BME280;2933;52.302;8.134;2022-08-11T02:45:10;101503.34;;;15.72;74.46
5814;BME280;2933;52.302;8.134;2022-08-11T02:50:18;101500.38;;;15.64;75.10
5814;BME280;2933;52.302;8.134;2022-08-11T02:55:25;101511.47;;;15.69;74.33
5814;BME280;2933;52.302;8.134;2022-08-11T03:00:43;101500.69;;;15.59;74.64
5814;BME280;2933;52.302;8.134;2022-08-11T03:05:53;101503.53;;;15.56;74.85
5814;BME280;2933;52.302;8.134;2022-08-11T03:11:04;101500.22;;;15.40;74.96
5814;BME280;2933;52.302;8.134;2022-08-11T03:16:31;101500.47;;;15.62;74.37
5814;BME280;2933;52.302;8.134;2022-08-11T03:21:55;101504.56;;;15.54;74.83
5814;BME280;2933;52.302;8.134;2022-08-11T03:27:04;101507.34;;;15.38;75.01
5814;BME280;2933;52.302;8.134;2022-08-11T03:32:20;101490.59;;;15.26;75.51
5814;BME280;2933;52.302;8.134;2022-08-11T03:37:39;101492.56;;;15.22;75.97
5814;BME280;2933;52.302;8.134;2022-08-11T03:42:56;101499.38;;;15.12;76.17
5814;BME280;2933;52.302;8.134;2022-08-11T03:48:13;101499.81;;;15.18;75.83
5814;BME280;2933;52.302;8.134;2022-08-11T03:53:27;101495.56;;;15.03;76.40
5814;BME280;2933;52.302;8.134;2022-08-11T04:04:27;101494.50;;;15.06;75.59
5814;BME280;2933;52.302;8.134;2022-08-11T04:09:55;101508.13;;;14.98;76.60
5814;BME280;2933;52.302;8.134;2022-08-11T04:15:18;101502.88;;;14.98;77.46
5814;BME280;2933;52.302;8.134;2022-08-11T04:20:57;101500.94;;;14.87;77.25
5814;BME280;2933;52.302;8.134;2022-08-11T04:26:47;101498.50;;;14.55;79.03
5814;BME280;2933;52.302;8.134;2022-08-11T04:32:03;101493.50;;;14.50;79.40
5814;BME280;2933;52.302;8.134;2022-08-11T04:37:34;101479.91;;;14.73;77.86
5814;BME280;2933;52.302;8.134;2022-08-11T04:48:33;101490.75;;;14.95;77.32
5814;BME280;2933;52.302;8.134;2022-08-11T04:54:04;101473.19;;;14.96;77.23
5814;BME280;2933;52.302;8.134;2022-08-11T04:59:42;101486.84;;;15.15;76.71
5814;BME280;2933;52.302;8.134;2022-08-11T05:05:15;101492.88;;;15.17;77.35
5814;BME280;2933;52.302;8.134;2022-08-11T05:10:50;101491.09;;;15.45;76.09
5814;BME280;2933;52.302;8.134;2022-08-11T05:16:00;101482.84;;;15.50;76.04
5814;BME280;2933;52.302;8.134;2022-08-11T05:21:26;101499.44;;;15.65;75.73
5814;BME280;2933;52.302;8.134;2022-08-11T05:26:48;101505.72;;;15.90;75.70
5814;BME280;2933;52.302;8.134;2022-08-11T05:32:11;101509.16;;;16.18;74.92
5814;BME280;2933;52.302;8.134;2022-08-11T05:37:35;101495.63;;;16.48;73.29
5814;BME280;2933;52.302;8.134;2022-08-11T05:42:42;101510.69;;;16.72;73.17
5814;BME280;2933;52.302;8.134;2022-08-11T05:48:06;101510.56;;;16.86;72.86
5814;BME280;2933;52.302;8.134;2022-08-11T05:53:26;101504.44;;;17.23;72.11
5814;BME280;2933;52.302;8.134;2022-08-11T05:58:49;101504.81;;;17.54;70.75
5814;BME280;2933;52.302;8.134;2022-08-11T06:03:52;101504.66;;;17.80;69.12
5814;BME280;2933;52.302;8.134;2022-08-11T06:09:12;101505.38;;;18.17;68.29
5814;BME280;2933;52.302;8.134;2022-08-11T06:14:17;101492.75;;;18.32;67.49
5814;BME280;2933;52.302;8.134;2022-08-11T06:19:21;101502.28;;;18.46;66.43
5814;BME280;2933;52.302;8.134;2022-08-11T06:24:23;101503.44;;;18.65;65.24
5814;BME280;2933;52.302;8.134;2022-08-11T06:29:29;101508.75;;;18.87;65.08
5814;BME280;2933;52.302;8.134;2022-08-11T06:34:37;101505.84;;;19.02;65.06
5814;BME280;2933;52.302;8.134;2022-08-11T06:39:46;101504.53;;;19.40;64.40
5814;BME280;2933;52.302;8.134;2022-08-11T06:44:58;101507.72;;;19.55;64.27
5814;BME280;2933;52.302;8.134;2022-08-11T06:50:05;101509.00;;;19.93;63.79
5814;BME280;2933;52.302;8.134;2022-08-11T06:55:27;101508.84;;;20.16;61.37
5814;BME280;2933;52.302;8.134;2022-08-11T07:00:53;101513.53;;;20.33;61.74
5814;BME280;2933;52.302;8.134;2022-08-11T07:06:01;101507.91;;;20.48;61.86
5814;BME280;2933;52.302;8.134;2022-08-11T07:11:37;101509.44;;;20.50;60.63
5814;BME280;2933;52.302;8.134;2022-08-11T07:17:13;101512.22;;;20.80;60.98
5814;BME280;2933;52.302;8.134;2022-08-11T07:22:34;101499.97;;;21.08;58.83
5814;BME280;2933;52.302;8.134;2022-08-11T07:27:58;101504.19;;;21.21;55.92
5814;BME280;2933;52.302;8.134;2022-08-11T07:33:25;101492.44;;;21.43;54.87
5814;BME280;2933;52.302;8.134;2022-08-11T07:38:36;101501.56;;;21.70;54.23
5814;BME280;2933;52.302;8.134;2022-08-11T07:43:45;101499.44;;;21.83;52.42
5814;BME280;2933;52.302;8.134;2022-08-11T07:48:50;101497.56;;;22.13;52.67
5814;BME280;2933;52.302;8.134;2022-08-11T07:54:10;101497.19;;;22.36;51.01
5814;BME280;2933;52.302;8.134;2022-08-11T07:59:13;101494.75;;;22.52;49.73
5814;BME280;2933;52.302;8.134;2022-08-11T08:04:33;101503.97;;;22.86;48.88
5814;BME280;2933;52.302;8.134;2022-08-11T08:09:53;101493.09;;;22.97;46.54
5814;BME280;2933;52.302;8.134;2022-08-11T08:15:13;101500.38;;;23.23;46.24
5814;BME280;2933;52.302;8.134;2022-08-11T08:20:38;101509.22;;;23.42;45.74
5814;BME280;2933;52.302;8.134;2022-08-11T08:25:43;101497.25;;;23.46;45.00
5814;BME280;2933;52.302;8.134;2022-08-11T08:30:48;101508.16;;;23.52;46.24
5814;BME280;2933;52.302;8.134;2022-08-11T08:35:56;101506.06;;;23.91;46.83
5814;BME280;2933;52.302;8.134;2022-08-11T08:41:12;101495.69;;;24.06;45.98
5814;BME280;2933;52.302;8.134;2022-08-11T08:46:18;101498.91;;;24.44;44.88
5814;BME280;2933;52.302;8.134;2022-08-11T08:51:22;101492.75;;;24.51;44.35
5814;BME280;2933;52.302;8.134;2022-08-11T08:56:38;101493.47;;;24.62;45.54
5814;BME280;2933;52.302;8.134;2022-08-11T09:01:58;101491.69;;;24.79;43.13
5814;BME280;2933;52.302;8.134;2022-08-11T09:07:08;101495.06;;;24.81;44.51
5814;BME280;2933;52.302;8.134;2022-08-11T09:12:11;101493.94;;;25.25;42.69
5814;BME280;2933;52.302;8.134;2022-08-11T09:17:15;101488.44;;;25.35;44.41
5814;BME280;2933;52.302;8.134;2022-08-11T09:22:19;101492.66;;;25.37;41.93
5814;BME280;2933;52.302;8.134;2022-08-11T09:27:40;101484.28;;;25.57;40.84
5814;BME280;2933;52.302;8.134;2022-08-11T09:32:42;101477.13;;;25.49;40.83
5814;BME280;2933;52.302;8.134;2022-08-11T09:37:45;101477.28;;;25.64;41.24
5814;BME280;2933;52.302;8.134;2022-08-11T09:43:05;101469.66;;;26.01;40.25
5814;BME280;2933;52.302;8.134;2022-08-11T09:48:29;101462.44;;;26.26;34.88
5814;BME280;2933;52.302;8.134;2022-08-11T09:53:37;101457.56;;;26.29;35.25
5814;BME280;2933;52.302;8.134;2022-08-11T09:58:42;101466.22;;;26.32;33.75
5814;BME280;2933;52.302;8.134;2022-08-11T10:03:45;101453.34;;;26.35;34.25
5814;BME280;2933;52.302;8.134;2022-08-11T10:08:51;101458.44;;;26.53;35.20
5814;BME280;2933;52.302;8.134;2022-08-11T10:13:54;101459.09;;;26.55;35.70
5814;BME280;2933;52.302;8.134;2022-08-11T10:19:15;101457.84;;;26.74;34.36
5814;BME280;2933;52.302;8.134;2022-08-11T10:24:20;101446.44;;;26.81;33.16
5814;BME280;2933;52.302;8.134;2022-08-11T10:29:39;101435.91;;;26.94;34.64
5814;BME280;2933;52.302;8.134;2022-08-11T10:35:00;101435.72;;;27.19;36.11
5814;BME280;2933;52.302;8.134;2022-08-11T10:40:07;101424.94;;;27.27;33.28
5814;BME280;2933;52.302;8.134;2022-08-11T10:45:10;101428.25;;;27.52;33.53
5814;BME280;2933;52.302;8.134;2022-08-11T10:50:26;101416.22;;;27.48;31.58
5814;BME280;2933;52.302;8.134;2022-08-11T10:55:48;101420.41;;;27.66;33.85
5814;BME280;2933;52.302;8.134;2022-08-11T11:01:07;101411.72;;;27.94;33.38
5814;BME280;2933;52.302;8.134;2022-08-11T11:06:17;101403.09;;;27.98;32.54
5814;BME280;2933;52.302;8.134;2022-08-11T11:11:28;101405.50;;;28.23;32.14
5814;BME280;2933;52.302;8.134;2022-08-11T11:16:44;101391.47;;;28.64;29.97
5814;BME280;2933;52.302;8.134;2022-08-11T11:22:04;101392.13;;;28.88;31.96
5814;BME280;2933;52.302;8.134;2022-08-11T11:27:28;101384.81;;;28.60;28.43
5814;BME280;2933;52.302;8.134;2022-08-11T11:32:40;101375.72;;;28.61;29.23
5814;BME280;2933;52.302;8.134;2022-08-11T11:37:47;101384.13;;;28.73;30.80
5814;BME280;2933;52.302;8.134;2022-08-11T11:42:52;101386.03;;;28.79;29.02
5814;BME280;2933;52.302;8.134;2022-08-11T11:47:56;101375.41;;;28.93;28.30
5814;BME280;2933;52.302;8.134;2022-08-11T11:53:00;101366.97;;;28.96;29.25
5814;BME280;2933;52.302;8.134;2022-08-11T11:58:04;101366.72;;;29.19;27.51
5814;BME280;2933;52.302;8.134;2022-08-11T12:03:23;101330.38;;;29.01;29.37
5814;BME280;2933;52.302;8.134;2022-08-11T12:08:26;101347.56;;;29.29;26.94
5814;BME280;2933;52.302;8.134;2022-08-11T12:13:30;101358.16;;;29.65;29.29
5814;BME280;2933;52.302;8.134;2022-08-11T12:18:42;101336.34;;;29.25;26.66
5814;BME280;2933;52.302;8.134;2022-08-11T12:23:47;101330.88;;;29.40;25.69
5814;BME280;2933;52.302;8.134;2022-08-11T12:29:10;101320.03;;;29.69;27.62
5814;BME280;2933;52.302;8.134;2022-08-11T12:34:13;101330.44;;;29.72;26.58
5814;BME280;2933;52.302;8.134;2022-08-11T12:39:19;101317.47;;;29.47;26.38
5814;BME280;2933;52.302;8.134;2022-08-11T12:44:42;101313.66;;;29.76;26.11
5814;BME280;2933;52.302;8.134;2022-08-11T12:50:01;101313.66;;;29.76;26.24
5814;BME280;2933;52.302;8.134;2022-08-11T12:55:22;101310.66;;;29.93;26.36
5814;BME280;2933;52.302;8.134;2022-08-11T13:00:40;101304.22;;;29.45;25.58
5814;BME280;2933;52.302;8.134;2022-08-11T13:06:01;101306.78;;;30.16;26.28
5814;BME280;2933;52.302;8.134;2022-08-11T13:11:04;101310.03;;;29.97;24.95
5814;BME280;2933;52.302;8.134;2022-08-11T13:16:28;101300.53;;;30.02;25.28
5814;BME280;2933;52.302;8.134;2022-08-11T13:21:30;101299.50;;;30.03;25.58
5814;BME280;2933;52.302;8.134;2022-08-11T13:26:34;101300.97;;;30.12;25.15
5814;BME280;2933;52.302;8.134;2022-08-11T13:31:38;101291.59;;;29.94;25.67
5814;BME280;2933;52.302;8.134;2022-08-11T13:36:42;101285.81;;;30.04;23.62
5814;BME280;2933;52.302;8.134;2022-08-11T13:41:44;101286.03;;;30.16;24.35
5814;BME280;2933;52.302;8.134;2022-08-11T13:46:48;101289.78;;;30.28;23.16
5814;BME280;2933;52.302;8.134;2022-08-11T13:51:53;101268.63;;;30.19;24.25
5814;BME280;2933;52.302;8.134;2022-08-11T13:56:58;101279.19;;;30.07;24.78
5814;BME280;2933;52.302;8.134;2022-08-11T14:02:03;101262.19;;;30.00;23.70
5814;BME280;2933;52.302;8.134;2022-08-11T14:07:08;101235.69;;;30.23;24.55
5814;BME280;2933;52.302;8.134;2022-08-11T14:12:13;101254.31;;;30.05;24.04
5814;BME280;2933;52.302;8.134;2022-08-11T14:17:35;101253.09;;;30.34;24.82
5814;BME280;2933;52.302;8.134;2022-08-11T14:22:40;101247.03;;;29.98;24.44
5814;BME280;2933;52.302;8.134;2022-08-11T14:27:43;101241.91;;;30.17;25.63
5814;BME280;2933;52.302;8.134;2022-08-11T14:32:50;101212.88;;;30.12;24.01
5814;BME280;2933;52.302;8.134;2022-08-11T14:37:52;101248.75;;;30.40;24.60
5814;BME280;2933;52.302;8.134;2022-08-11T14:42:53;101239.41;;;30.09;24.32
5814;BME280;2933;52.302;8.134;2022-08-11T14:48:14;101240.25;;;30.29;24.33
5814;BME280;2933;52.302;8.134;2022-08-11T14:53:15;101233.81;;;30.37;24.75
5814;BME280;2933;52.302;8.134;2022-08-11T14:58:19;101219.72;;;30.42;25.21
5814;BME280;2933;52.302;8.134;2022-08-11T15:03:25;101213.94;;;30.45;24.07
5814;BME280;2933;52.302;8.134;2022-08-11T15:08:28;101214.75;;;30.19;24.02
5814;BME280;2933;52.302;8.134;2022-08-11T15:13:48;101210.81;;;30.08;24.41
5814;BME280;2933;52.302;8.134;2022-08-11T15:18:51;101208.31;;;30.13;25.10
5814;BME280;2933;52.302;8.134;2022-08-11T15:23:52;101200.47;;;30.32;24.91
5814;BME280;2933;52.302;8.134;2022-08-11T15:29:13;101197.16;;;30.36;23.94
5814;BME280;2933;52.302;8.134;2022-08-11T15:34:34;101195.25;;;30.23;24.43
5814;BME280;2933;52.302;8.134;2022-08-11T15:40:00;101180.06;;;29.82;24.35
5814;BME280;2933;52.302;8.134;2022-08-11T15:45:21;101185.88;;;29.79;24.90
5814;BME280;2933;52.302;8.134;2022-08-11T15:50:47;101179.44;;;29.66;24.28
5814;BME280;2933;52.302;8.134;2022-08-11T15:55:51;101170.13;;;29.82;24.94
5814;BME280;2933;52.302;8.134;2022-08-11T16:01:13;101163.47;;;29.58;24.16
5814;BME280;2933;52.302;8.134;2022-08-11T16:06:39;101170.72;;;29.64;24.28
5814;BME280;2933;52.302;8.134;2022-08-11T16:11:42;101162.22;;;29.67;23.44
5814;BME280;2933;52.302;8.134;2022-08-11T16:16:47;101155.00;;;29.68;23.40
5814;BME280;2933;52.302;8.134;2022-08-11T16:21:52;101154.69;;;29.29;23.88
5814;BME280;2933;52.302;8.134;2022-08-11T16:26:56;101155.84;;;29.20;23.78
5814;BME280;2933;52.302;8.134;2022-08-11T16:32:00;101151.47;;;29.12;24.05
5814;BME280;2933;52.302;8.134;2022-08-11T16:37:21;101140.84;;;28.91;24.96
5814;BME280;2933;52.302;8.134;2022-08-11T16:42:41;101142.53;;;28.98;24.43
5814;BME280;2933;52.302;8.134;2022-08-11T16:48:05;101137.09;;;28.92;25.65
5814;BME280;2933;52.302;8.134;2022-08-11T16:53:09;101132.53;;;28.85;25.04
5814;BME280;2933;52.302;8.134;2022-08-11T16:58:11;101132.94;;;28.82;25.54
5814;BME280;2933;52.302;8.134;2022-08-11T17:03:32;101129.16;;;28.77;24.78
5814;BME280;2933;52.302;8.134;2022-08-11T17:08:53;101130.41;;;28.74;25.78
5814;BME280;2933;52.302;8.134;2022-08-11T17:14:15;101127.59;;;28.61;25.80
5814;BME280;2933;52.302;8.134;2022-08-11T17:19:20;101122.88;;;28.63;25.43
5814;BME280;2933;52.302;8.134;2022-08-11T17:24:24;101124.91;;;28.61;25.99
5814;BME280;2933;52.302;8.134;2022-08-11T17:29:29;101123.88;;;28.55;26.28
5814;BME280;2933;52.302;8.134;2022-08-11T17:34:33;101124.78;;;28.41;25.63
5814;BME280;2933;52.302;8.134;2022-08-11T17:39:54;101123.28;;;28.31;26.62
5814;BME280;2933;52.302;8.134;2022-08-11T17:44:57;101121.94;;;28.14;26.16
5814;BME280;2933;52.302;8.134;2022-08-11T17:50:17;101119.47;;;27.97;26.66
5814;BME280;2933;52.302;8.134;2022-08-11T17:55:22;101114.00;;;27.84;27.42
5814;BME280;2933;52.302;8.134;2022-08-11T18:00:41;101112.72;;;27.80;28.11
5814;BME280;2933;52.302;8.134;2022-08-11T18:05:44;101117.31;;;27.64;28.04
5814;BME280;2933;52.302;8.134;2022-08-11T18:10:50;101114.19;;;27.61;28.67
5814;BME280;2933;52.302;8.134;2022-08-11T18:16:11;101127.13;;;27.35;29.76
5814;BME280;2933;52.302;8.134;2022-08-11T18:21:30;101120.13;;;27.04;31.35
5814;BME280;2933;52.302;8.134;2022-08-11T18:26:52;101120.78;;;26.76;32.81
5814;BME280;2933;52.302;8.134;2022-08-11T18:32:12;101129.38;;;26.57;34.56
5814;BME280;2933;52.302;8.134;2022-08-11T18:37:35;101128.41;;;26.20;37.06
5814;BME280;2933;52.302;8.134;2022-08-11T18:42:57;101123.38;;;25.93;36.58
5814;BME280;2933;52.302;8.134;2022-08-11T18:48:21;101135.41;;;25.74;37.71
5814;BME280;2933;52.302;8.134;2022-08-11T18:53:43;101126.22;;;25.45;38.17
5814;BME280;2933;52.302;8.134;2022-08-11T18:59:07;101139.00;;;25.27;40.44
5814;BME280;2933;52.302;8.134;2022-08-11T19:04:28;101119.47;;;24.78;41.73
5814;BME280;2933;52.302;8.134;2022-08-11T19:09:48;101137.88;;;24.65;43.12
5814;BME280;2933;52.302;8.134;2022-08-11T19:15:10;101155.25;;;24.44;43.60
5814;BME280;2933;52.302;8.134;2022-08-11T19:20:31;101153.78;;;24.17;44.24
5814;BME280;2933;52.302;8.134;2022-08-11T19:25:55;101156.53;;;23.91;44.44
5814;BME280;2933;52.302;8.134;2022-08-11T19:31:15;101160.50;;;23.62;46.08
5814;BME280;2933;52.302;8.134;2022-08-11T19:36:34;101162.00;;;23.64;44.30
5814;BME280;2933;52.302;8.134;2022-08-11T19:41:56;101168.44;;;23.45;44.86
5814;BME280;2933;52.302;8.134;2022-08-11T19:47:17;101168.41;;;23.37;45.42
5814;BME280;2933;52.302;8.134;2022-08-11T19:52:38;101174.09;;;23.07;45.84
5814;BME280;2933;52.302;8.134;2022-08-11T19:58:00;101179.91;;;23.03;45.89
5814;BME280;2933;52.302;8.134;2022-08-11T20:03:20;101173.00;;;22.92;46.53
5814;BME280;2933;52.302;8.134;2022-08-11T20:08:41;101177.97;;;22.87;47.16
5814;BME280;2933;52.302;8.134;2022-08-11T20:14:04;101169.03;;;22.70;46.69
5814;BME280;2933;52.302;8.134;2022-08-11T20:19:24;101172.66;;;22.61;48.22
5814;BME280;2933;52.302;8.134;2022-08-11T20:24:46;101180.41;;;22.54;48.27
5814;BME280;2933;52.302;8.134;2022-08-11T20:30:09;101170.72;;;22.08;51.29
5814;BME280;2933;52.302;8.134;2022-08-11T20:35:30;101186.31;;;22.03;51.65
5814;BME280;2933;52.302;8.134;2022-08-11T20:40:51;101175.72;;;21.93;51.82
5814;BME280;2933;52.302;8.134;2022-08-11T20:46:12;101182.47;;;21.70;52.79
5814;BME280;2933;52.302;8.134;2022-08-11T20:51:33;101183.25;;;21.52;53.42
5814;BME280;2933;52.302;8.134;2022-08-11T20:56:54;101167.28;;;21.24;54.67
5814;BME280;2933;52.302;8.134;2022-08-11T21:02:15;101176.78;;;21.27;54.52
5814;BME280;2933;52.302;8.134;2022-08-11T21:07:37;101182.28;;;21.15;55.07
5814;BME280;2933;52.302;8.134;2022-08-11T21:13:00;101149.25;;;20.90;54.21
5814;BME280;2933;52.302;8.134;2022-08-11T21:18:24;101189.66;;;21.22;53.47
5814;BME280;2933;52.302;8.134;2022-08-11T21:23:43;101182.00;;;21.19;54.19
5814;BME280;2933;52.302;8.134;2022-08-11T21:29:04;101189.38;;;20.87;54.81
5814;BME280;2933;52.302;8.134;2022-08-11T21:34:26;101164.22;;;20.91;54.39
5814;BME280;2933;52.302;8.134;2022-08-11T21:39:46;101194.56;;;20.69;55.67
5814;BME280;2933;52.302;8.134;2022-08-11T21:45:07;101192.59;;;20.71;55.39
5814;BME280;2933;52.302;8.134;2022-08-11T21:50:29;101188.97;;;20.62;55.98
5814;BME280;2933;52.302;8.134;2022-08-11T21:55:49;101195.13;;;20.82;54.00
5814;BME280;2933;52.302;8.134;2022-08-11T22:01:09;101200.72;;;20.79;54.22
5814;BME280;2933;52.302;8.134;2022-08-11T22:06:31;101196.66;;;20.65;54.44
5814;BME280;2933;52.302;8.134;2022-08-11T22:11:50;101197.38;;;20.67;54.93
5814;BME280;2933;52.302;8.134;2022-08-11T22:17:10;101195.94;;;20.63;54.71
5814;BME280;2933;52.302;8.134;2022-08-11T22:22:30;101190.94;;;20.60;55.15
5814;BME280;2933;52.302;8.134;2022-08-11T22:27:51;101187.88;;;20.55;55.23
5814;BME280;2933;52.302;8.134;2022-08-11T22:33:10;101181.56;;;20.76;54.14
5814;BME280;2933;52.302;8.134;2022-08-11T22:38:32;101185.19;;;20.75;54.23
5814;BME280;2933;52.302;8.134;2022-08-11T22:43:52;101188.69;;;20.65;54.06
5814;BME280;2933;52.302;8.134;2022-08-11T22:49:11;101195.38;;;20.70;54.12
5814;BME280;2933;52.302;8.134;2022-08-11T22:54:32;101193.59;;;20.70;54.26
5814;BME280;2933;52.302;8.134;2022-08-11T22:59:52;101206.97;;;20.69;54.24
5814;BME280;2933;52.302;8.134;2022-08-11T23:05:13;101195.28;;;20.61;53.95
5814;BME280;2933;52.302;8.134;2022-08-11T23:10:34;101191.38;;;20.46;54.11
5814;BME280;2933;52.302;8.134;2022-08-11T23:15:54;101187.16;;;20.53;54.30
5814;BME280;2933;52.302;8.134;2022-08-11T23:21:14;101193.59;;;20.41;55.04
5814;BME280;2933;52.302;8.134;2022-08-11T23:26:37;101191.09;;;20.29;55.49
5814;BME280;2933;52.302;8.134;2022-08-11T23:31:56;101186.34;;;20.23;55.63
5814;BME280;2933;52.302;8.134;2022-08-11T23:37:16;101176.69;;;19.83;58.17
5814;BME280;2933;52.302;8.134;2022-08-11T23:42:37;101178.41;;;19.53;59.28
5814;BME280;2933;52.302;8.134;2022-08-11T23:47:57;101170.88;;;19.48;59.52
5814;BME280;2933;52.302;8.134;2022-08-11T23:53:17;101173.31;;;19.30;60.28
5814;BME280;2933;52.302;8.134;2022-08-11T23:58:38;101170.41;;;19.02;61.25
